createdAt,value
2022-09-06T00:01:52.449Z,65.12
2022-09-06T00:04:33.162Z,65.19
2022-09-06T00:07:13.600Z,65.19
2022-09-06T00:10:43.290Z,65.49
2022-09-06T00:13:44.228Z,65.64
2022-09-06T00:16:35.758Z,65.76
2022-09-06T00:19:07.402Z,65.48
2022-09-06T00:22:16.663Z,65.64
2022-09-06T00:25:38.061Z,65.64
2022-09-06T00:28:48.189Z,65.74
2022-09-06T00:31:35.542Z,65.84
2022-09-06T00:34:34.335Z,65.84
2022-09-06T00:37:41.288Z,65.84
2022-09-06T00:40:53.217Z,66.03
2022-09-06T00:43:34.525Z,65.96
2022-09-06T00:46:51.387Z,65.86
2022-09-06T00:50:05.432Z,65.94
2022-09-06T00:53:08.693Z,65.87
2022-09-06T00:55:45.853Z,65.89
2022-09-06T00:58:47.452Z,65.91
2022-09-06T01:01:39.395Z,66.00
2022-09-06T01:04:29.100Z,66.13
2022-09-06T01:08:08.318Z,66.21
2022-09-06T01:10:57.659Z,66.49
2022-09-06T01:14:21.804Z,66.70
2022-09-06T01:17:56.956Z,66.87
2022-09-06T01:20:42.119Z,67.08
2022-09-06T01:24:04.831Z,67.50
2022-09-06T01:27:10.424Z,67.05
2022-09-06T01:30:20.681Z,67.09
2022-09-06T01:33:14.246Z,67.26
2022-09-06T01:37:06.219Z,66.93
2022-09-06T01:40:30.709Z,67.02
2022-09-06T01:43:14.239Z,66.68
2022-09-06T01:46:18.042Z,66.67
2022-09-06T01:49:23.606Z,66.56
2022-09-06T01:52:36.835Z,66.50
2022-09-06T01:55:55.715Z,66.74
2022-09-06T01:58:53.025Z,66.78
2022-09-06T02:01:47.391Z,66.98
2022-09-06T02:04:47.230Z,66.82
2022-09-06T02:08:01.922Z,66.60
2022-09-06T02:11:10.895Z,66.23
2022-09-06T02:13:59.630Z,65.96
2022-09-06T02:17:03.686Z,66.08
2022-09-06T02:20:07.679Z,66.03
2022-09-06T02:23:06.821Z,65.80
2022-09-06T02:26:03.858Z,65.66
2022-09-06T02:29:11.589Z,65.76
2022-09-06T02:32:00.105Z,65.49
2022-09-06T02:34:48.176Z,65.67
2022-09-06T02:37:43.618Z,66.07
2022-09-06T02:41:13.073Z,66.46
2022-09-06T02:44:02.062Z,66.77
2022-09-06T02:46:45.363Z,66.71
2022-09-06T02:49:32.685Z,66.94
2022-09-06T02:52:23.055Z,67.16
2022-09-06T02:54:55.424Z,67.36
2022-09-06T02:57:42.778Z,67.39
2022-09-06T03:00:27.742Z,67.61
2022-09-06T03:03:13.940Z,68.07
2022-09-06T03:06:03.924Z,67.98
2022-09-06T03:08:55.855Z,67.99
2022-09-06T03:11:25.121Z,68.12
2022-09-06T03:14:12.888Z,68.21
2022-09-06T03:16:54.916Z,68.25
2022-09-06T03:19:27.031Z,68.14
2022-09-06T03:22:39.638Z,68.15
2022-09-06T03:25:16.436Z,68.21
2022-09-06T03:28:15.541Z,68.17
2022-09-06T03:30:53.700Z,68.25
2022-09-06T03:33:51.586Z,68.03
2022-09-06T03:36:35.770Z,68.10
2022-09-06T03:39:15.996Z,67.94
2022-09-06T03:42:28.784Z,68.09
2022-09-06T03:45:32.038Z,67.75
2022-09-06T03:48:11.404Z,67.54
2022-09-06T03:51:03.475Z,67.34
2022-09-06T03:54:24.518Z,67.18
2022-09-06T03:57:14.648Z,67.13
2022-09-06T04:00:27.431Z,67.05
2022-09-06T04:03:09.289Z,67.25
2022-09-06T04:06:27.400Z,67.56
2022-09-06T04:09:59.309Z,67.40
2022-09-06T04:12:39.846Z,67.35
2022-09-06T04:16:09.350Z,67.29
2022-09-06T04:18:49.878Z,67.35
2022-09-06T04:21:22.324Z,66.93
2022-09-06T04:24:43.279Z,66.97
2022-09-06T04:27:35.398Z,67.06
2022-09-06T04:30:33.043Z,67.04
2022-09-06T04:33:50.522Z,67.04
2022-09-06T04:36:33.130Z,67.07
2022-09-06T04:39:18.053Z,67.18
2022-09-06T04:42:09.525Z,67.42
2022-09-06T04:45:21.575Z,67.44
2022-09-06T04:48:05.491Z,67.46
2022-09-06T04:51:03.303Z,67.46
2022-09-06T04:53:41.000Z,67.42
2022-09-06T04:56:42.782Z,67.30
2022-09-06T04:59:58.202Z,67.37
2022-09-06T05:03:14.445Z,67.48
2022-09-06T05:06:14.255Z,67.34
2022-09-06T05:08:49.364Z,67.38
2022-09-06T05:11:21.270Z,67.19
2022-09-06T05:14:15.954Z,67.15
2022-09-06T05:17:15.671Z,67.32
2022-09-06T05:20:14.726Z,67.29
2022-09-06T05:22:54.438Z,67.09
2022-09-06T05:25:31.591Z,66.86
2022-09-06T05:28:08.716Z,66.76
2022-09-06T05:30:51.346Z,66.80
2022-09-06T05:33:30.980Z,66.77
2022-09-06T05:36:23.884Z,66.80
2022-09-06T05:39:22.092Z,66.62
2022-09-06T05:42:21.740Z,66.33
2022-09-06T05:45:02.534Z,65.62
2022-09-06T05:48:00.105Z,64.39
2022-09-06T05:50:46.925Z,63.09
2022-09-06T05:53:58.780Z,62.37
2022-09-06T05:56:38.766Z,62.23
2022-09-06T05:59:10.574Z,62.29
2022-09-06T06:01:58.598Z,62.28
2022-09-06T06:05:01.862Z,62.22
2022-09-06T06:07:30.445Z,62.06
2022-09-06T06:10:09.452Z,61.68
2022-09-06T06:13:01.199Z,61.32
2022-09-06T06:15:44.792Z,60.89
2022-09-06T06:18:24.034Z,60.43
2022-09-06T06:21:44.975Z,59.99
2022-09-06T06:24:39.720Z,60.00
2022-09-06T06:27:23.734Z,59.86
2022-09-06T06:30:09.707Z,59.71
2022-09-06T06:33:03.276Z,58.76
2022-09-06T06:36:05.241Z,58.39
2022-09-06T06:39:17.348Z,58.94
2022-09-06T06:41:51.054Z,60.06
2022-09-06T06:44:39.348Z,60.21
2022-09-06T06:47:11.788Z,60.95
2022-09-06T06:49:52.595Z,62.09
2022-09-06T06:52:24.565Z,62.85
2022-09-06T06:55:01.376Z,62.55
2022-09-06T06:57:44.735Z,62.21
2022-09-06T07:00:39.182Z,61.87
2022-09-06T07:03:32.662Z,60.94
2022-09-06T07:06:16.405Z,60.53
2022-09-06T07:08:46.622Z,59.79
2022-09-06T07:11:19.478Z,58.45
2022-09-06T07:13:50.549Z,57.70
2022-09-06T07:16:22.588Z,57.39
2022-09-06T07:18:53.047Z,57.62
2022-09-06T07:24:10.315Z,58.36
2022-09-06T07:26:40.325Z,58.60
2022-09-06T07:29:12.153Z,59.03
2022-09-06T07:34:33.898Z,59.75
2022-09-06T07:37:02.806Z,60.49
2022-09-06T07:39:33.306Z,60.64
2022-09-06T07:42:04.997Z,61.19
2022-09-06T07:44:33.800Z,61.08
2022-09-06T07:55:35.874Z,60.10
2022-09-06T07:58:04.978Z,60.21
2022-09-06T08:00:33.980Z,60.38
2022-09-06T08:03:07.571Z,60.41
2022-09-06T08:11:15.612Z,59.86
2022-09-06T08:13:45.014Z,59.81
2022-09-06T08:16:15.743Z,59.70
2022-09-06T08:18:47.814Z,59.74
2022-09-06T08:21:17.015Z,59.90
2022-09-06T08:23:49.820Z,59.70
2022-09-06T08:26:23.695Z,57.84
2022-09-06T08:29:03.005Z,56.70
2022-09-06T08:31:33.338Z,56.19
2022-09-06T08:34:02.939Z,56.15
2022-09-06T08:36:32.460Z,56.05
2022-09-06T08:39:06.468Z,55.05
2022-09-06T08:42:04.150Z,55.42
2022-09-06T08:44:57.639Z,55.56
2022-09-06T08:47:27.565Z,55.15
2022-09-06T08:50:02.556Z,55.32
2022-09-06T08:53:16.338Z,54.76
2022-09-06T08:55:55.081Z,53.58
2022-09-06T08:58:46.019Z,52.07
2022-09-06T09:01:27.733Z,51.01
2022-09-06T09:04:03.304Z,50.39
2022-09-06T09:06:32.982Z,51.14
2022-09-06T09:09:06.649Z,52.09
2022-09-06T09:11:36.542Z,51.58
2022-09-06T09:14:05.390Z,50.60
2022-09-06T09:16:35.106Z,50.99
2022-09-06T09:19:05.766Z,50.92
2022-09-06T09:21:40.745Z,50.21
2022-09-06T09:24:12.315Z,50.06
2022-09-06T09:26:57.872Z,49.89
2022-09-06T09:29:29.517Z,49.49
2022-09-06T09:32:00.204Z,48.96
2022-09-06T09:34:34.765Z,48.66
2022-09-06T09:40:28.711Z,46.43
2022-09-06T09:43:29.884Z,46.55
2022-09-06T09:46:16.768Z,47.05
2022-09-06T09:49:01.328Z,46.71
2022-09-06T09:51:32.801Z,46.48
2022-09-06T09:54:04.812Z,45.78
2022-09-06T09:56:52.998Z,45.37
2022-09-06T09:59:26.145Z,45.18
2022-09-06T10:02:01.719Z,44.91
2022-09-06T10:04:43.218Z,44.73
2022-09-06T10:07:18.476Z,43.80
2022-09-06T10:09:59.726Z,43.95
2022-09-06T10:12:33.489Z,41.86
2022-09-06T10:15:06.910Z,41.42
2022-09-06T10:17:50.192Z,40.26
2022-09-06T10:20:33.893Z,39.12
2022-09-06T10:23:12.613Z,38.06
2022-09-06T10:25:55.930Z,38.47
2022-09-06T10:28:44.414Z,38.66
2022-09-06T10:31:42.457Z,37.62
2022-09-06T10:34:35.883Z,37.79
2022-09-06T10:37:10.741Z,38.22
2022-09-06T10:40:07.165Z,36.92
2022-09-06T10:42:50.437Z,36.15
2022-09-06T10:45:24.847Z,36.16
2022-09-06T10:48:03.018Z,36.27
2022-09-06T10:50:46.511Z,35.24
2022-09-06T10:53:20.802Z,34.28
2022-09-06T10:56:01.845Z,35.33
2022-09-06T11:01:42.171Z,34.02
2022-09-06T11:04:20.394Z,34.31
2022-09-06T11:06:53.773Z,31.72
2022-09-06T11:09:33.019Z,32.25
2022-09-06T11:12:22.877Z,33.05
2022-09-06T11:14:52.420Z,31.68
2022-09-06T11:17:41.651Z,29.45
2022-09-06T11:20:35.145Z,30.34
2022-09-06T11:23:37.733Z,29.94
2022-09-06T11:26:55.543Z,29.53
2022-09-06T11:29:27.527Z,29.45
2022-09-06T11:34:57.026Z,26.65
2022-09-06T11:37:36.932Z,26.64
2022-09-06T11:40:32.118Z,27.25
2022-09-06T11:43:01.482Z,25.41
2022-09-06T11:45:53.003Z,26.59
2022-09-06T11:48:24.790Z,24.97
2022-09-06T11:50:59.214Z,26.21
2022-09-06T11:53:34.435Z,25.06
2022-09-06T11:56:03.345Z,24.14
2022-09-06T11:58:38.014Z,23.39
2022-09-06T12:01:12.968Z,23.46
2022-09-06T12:04:10.253Z,22.65
2022-09-06T12:07:12.497Z,21.87
2022-09-06T12:09:43.059Z,21.28
2022-09-06T12:12:16.778Z,20.47
2022-09-06T12:14:49.511Z,19.96
2022-09-06T12:17:20.478Z,18.72
2022-09-06T12:19:52.092Z,18.52
2022-09-06T12:22:29.708Z,18.30
2022-09-06T12:25:35.214Z,18.07
2022-09-06T12:28:23.784Z,17.80
2022-09-06T12:30:53.719Z,17.59
2022-09-06T12:33:39.027Z,17.39
2022-09-06T12:36:29.886Z,17.16
2022-09-06T12:39:16.502Z,16.88
2022-09-06T12:41:50.682Z,16.98
2022-09-06T12:44:28.315Z,16.77
2022-09-06T12:47:03.417Z,16.67
2022-09-06T12:49:32.340Z,16.78
2022-09-06T12:52:27.401Z,16.77
2022-09-06T12:54:56.078Z,16.97
2022-09-06T12:57:26.611Z,16.74
2022-09-06T12:59:58.625Z,16.87
2022-09-06T13:02:43.110Z,17.08
2022-09-06T13:05:13.632Z,17.07
2022-09-06T13:07:49.222Z,17.39
2022-09-06T13:10:22.525Z,17.15
2022-09-06T13:12:53.208Z,16.96
2022-09-06T13:15:31.567Z,17.27
2022-09-06T13:18:22.702Z,17.53
2022-09-06T13:21:00.426Z,17.59
2022-09-06T13:23:31.120Z,17.71
2022-09-06T13:25:59.881Z,17.70
2022-09-06T13:28:30.093Z,17.58
2022-09-06T13:31:18.531Z,17.64
2022-09-06T13:33:57.398Z,17.85
2022-09-06T13:36:32.910Z,18.00
2022-09-06T13:39:04.140Z,18.17
2022-09-06T13:41:37.606Z,18.40
2022-09-06T13:44:18.682Z,18.54
2022-09-06T13:46:47.512Z,18.51
2022-09-06T13:49:16.157Z,18.57
2022-09-06T13:51:44.842Z,18.57
2022-09-06T13:54:14.616Z,18.51
2022-09-06T13:56:46.253Z,18.58
2022-09-06T13:59:15.319Z,18.94
2022-09-06T14:01:47.382Z,19.16
2022-09-06T14:04:21.490Z,19.03
2022-09-06T14:06:50.160Z,19.31
2022-09-06T14:09:19.271Z,19.13
2022-09-06T14:11:48.480Z,19.42
2022-09-06T14:14:18.730Z,19.78
2022-09-06T14:16:48.024Z,20.14
2022-09-06T14:19:17.283Z,20.32
2022-09-06T14:21:46.147Z,20.53
2022-09-06T14:24:14.990Z,20.93
2022-09-06T14:26:43.339Z,21.04
2022-09-06T14:29:12.024Z,21.05
2022-09-06T14:31:41.021Z,21.39
2022-09-06T14:34:09.704Z,21.54
2022-09-06T14:36:38.723Z,21.72
2022-09-06T14:39:07.274Z,22.10
2022-09-06T14:41:35.658Z,22.19
2022-09-06T14:44:04.651Z,22.45
2022-09-06T14:46:33.273Z,22.62
2022-09-06T14:49:06.371Z,22.79
2022-09-06T14:51:37.110Z,22.84
2022-09-06T14:54:13.920Z,22.91
2022-09-06T14:56:43.988Z,23.03
2022-09-06T14:59:13.458Z,23.23
2022-09-06T15:01:42.428Z,23.32
2022-09-06T15:04:14.717Z,23.40
2022-09-06T15:06:47.358Z,23.29
2022-09-06T15:09:17.555Z,23.58
2022-09-06T15:11:51.478Z,23.84
2022-09-06T15:14:30.046Z,23.93
2022-09-06T15:17:00.343Z,23.94
2022-09-06T15:19:30.283Z,24.26
2022-09-06T15:21:59.148Z,24.50
2022-09-06T15:24:28.896Z,24.78
2022-09-06T15:26:58.039Z,24.95
2022-09-06T15:29:27.606Z,25.00
2022-09-06T15:31:57.531Z,25.37
2022-09-06T15:34:26.907Z,25.44
2022-09-06T15:36:56.926Z,25.41
2022-09-06T15:39:26.028Z,25.71
2022-09-06T15:41:58.700Z,25.94
2022-09-06T15:44:27.778Z,26.17
2022-09-06T15:47:07.256Z,26.67
2022-09-06T15:49:37.439Z,26.90
2022-09-06T15:52:07.696Z,27.21
2022-09-06T15:54:57.530Z,27.52
2022-09-06T15:57:35.489Z,27.51
2022-09-06T16:00:05.477Z,27.51
2022-09-06T16:02:34.457Z,27.72
2022-09-06T16:05:08.917Z,27.93
2022-09-06T16:07:41.263Z,28.25
2022-09-06T16:10:20.598Z,28.47
2022-09-06T16:12:52.107Z,28.68
2022-09-06T16:15:26.575Z,28.82
2022-09-06T16:18:05.702Z,28.93
2022-09-06T16:20:38.215Z,29.05
2022-09-06T16:23:09.429Z,29.20
2022-09-06T16:25:38.546Z,29.31
2022-09-06T16:28:07.189Z,29.66
2022-09-06T16:30:41.083Z,29.89
2022-09-06T16:33:13.838Z,30.24
2022-09-06T16:35:43.404Z,30.71
2022-09-06T16:38:15.155Z,31.17
2022-09-06T16:40:46.396Z,31.95
2022-09-06T16:43:35.903Z,32.66
2022-09-06T16:46:05.497Z,33.50
2022-09-06T16:48:38.272Z,34.26
2022-09-06T16:51:15.942Z,35.14
2022-09-06T16:53:47.557Z,36.07
2022-09-06T16:56:18.532Z,36.95
2022-09-06T16:58:56.458Z,38.10
2022-09-06T17:01:27.234Z,38.79
2022-09-06T17:03:56.221Z,39.54
2022-09-06T17:06:25.177Z,40.18
2022-09-06T17:08:58.730Z,41.13
2022-09-06T17:11:29.311Z,42.18
2022-09-06T17:13:58.302Z,42.76
2022-09-06T17:16:45.383Z,43.40
2022-09-06T17:19:14.820Z,43.77
2022-09-06T17:21:46.761Z,44.68
2022-09-06T17:24:15.802Z,45.04
2022-09-06T17:26:44.256Z,45.30
2022-09-06T17:29:13.156Z,46.22
2022-09-06T17:31:42.009Z,46.58
2022-09-06T17:34:11.769Z,47.27
2022-09-06T17:36:42.994Z,47.92
2022-09-06T17:39:21.407Z,48.39
2022-09-06T17:41:56.283Z,48.80
2022-09-06T17:44:26.971Z,49.23
2022-09-06T17:47:14.373Z,49.91
2022-09-06T17:49:44.110Z,50.37
2022-09-06T17:52:14.020Z,51.11
2022-09-06T17:54:44.842Z,51.47
2022-09-06T17:57:14.025Z,52.19
2022-09-06T17:59:43.149Z,52.32
2022-09-06T18:02:12.147Z,52.85
2022-09-06T18:04:41.143Z,53.09
2022-09-06T18:07:10.047Z,53.28
2022-09-06T18:09:40.610Z,53.75
2022-09-06T18:12:09.753Z,54.21
2022-09-06T18:14:38.643Z,54.52
2022-09-06T18:17:09.304Z,54.72
2022-09-06T18:19:38.679Z,55.00
2022-09-06T18:22:07.891Z,55.72
2022-09-06T18:24:39.122Z,55.81
2022-09-06T18:27:14.462Z,56.16
2022-09-06T18:29:48.574Z,56.29
2022-09-06T18:32:17.875Z,56.32
2022-09-06T18:34:52.298Z,56.84
2022-09-06T18:37:21.948Z,57.17
2022-09-06T18:39:51.060Z,57.49
2022-09-06T18:42:22.243Z,57.93
2022-09-06T18:44:51.750Z,58.21
2022-09-06T18:47:23.917Z,58.39
2022-09-06T18:50:22.337Z,58.86
2022-09-06T18:52:51.847Z,58.76
2022-09-06T18:55:26.326Z,59.05
2022-09-06T18:58:00.892Z,59.60
2022-09-06T19:00:38.737Z,59.72
2022-09-06T19:03:15.482Z,59.94
2022-09-06T19:05:47.980Z,60.21
2022-09-06T19:08:17.610Z,60.37
2022-09-06T19:10:47.111Z,60.90
2022-09-06T19:13:19.406Z,61.17
2022-09-06T19:16:17.188Z,61.54
2022-09-06T19:18:50.131Z,61.64
2022-09-06T19:21:25.053Z,62.61
2022-09-06T19:24:01.027Z,63.49
2022-09-06T19:26:38.524Z,64.49
2022-09-06T19:29:39.974Z,63.11
2022-09-06T19:32:29.008Z,62.70
2022-09-06T19:35:50.987Z,62.27
2022-09-06T19:39:03.154Z,61.79
2022-09-06T19:42:06.163Z,61.55
2022-09-06T19:45:16.633Z,61.08
2022-09-06T19:48:58.752Z,59.95
2022-09-06T19:51:37.969Z,59.49
2022-09-06T20:09:42.498Z,63.45
2022-09-06T20:13:00.958Z,65.34
2022-09-06T20:16:31.742Z,65.60
2022-09-06T20:19:23.379Z,64.77
2022-09-06T20:22:23.166Z,64.30
2022-09-06T20:25:49.260Z,63.67
2022-09-06T20:28:58.599Z,63.63
2022-09-06T20:32:16.055Z,63.50
2022-09-06T20:34:53.705Z,62.94
2022-09-06T20:38:03.265Z,62.81
2022-09-06T20:41:34.114Z,62.95
2022-09-06T20:45:16.011Z,62.98
2022-09-06T20:48:35.429Z,62.89
2022-09-06T20:51:56.195Z,62.89
2022-09-06T20:54:44.611Z,62.71
2022-09-06T20:57:19.475Z,62.65
2022-09-06T21:00:19.989Z,62.57
2022-09-06T21:03:17.669Z,62.78
2022-09-06T21:06:30.265Z,62.64
2022-09-06T21:09:45.870Z,62.77
2022-09-06T21:13:06.985Z,62.73
2022-09-06T21:16:14.060Z,62.63
2022-09-06T21:19:29.000Z,62.71
2022-09-06T21:22:40.760Z,63.08
2022-09-06T21:26:14.885Z,63.25
2022-09-06T21:29:13.021Z,63.19
2022-09-06T21:32:53.599Z,63.06
2022-09-06T21:36:00.692Z,63.02
2022-09-06T21:38:39.404Z,63.09
2022-09-06T21:42:09.736Z,63.01
2022-09-06T21:45:38.746Z,63.15
2022-09-06T21:48:43.985Z,63.27
2022-09-06T21:51:48.200Z,63.30
2022-09-06T21:54:47.493Z,63.20
2022-09-06T21:57:32.849Z,63.28
2022-09-06T22:00:53.769Z,63.50
2022-09-06T22:04:20.643Z,63.87
2022-09-06T22:07:49.994Z,63.98
2022-09-06T22:10:48.025Z,63.99
2022-09-06T22:14:17.535Z,64.03
2022-09-06T22:17:24.623Z,64.44
2022-09-06T22:20:34.008Z,64.57
2022-09-06T22:23:43.401Z,64.77
2022-09-06T22:42:16.600Z,64.66
2022-09-06T22:45:49.920Z,64.94
2022-09-06T23:00:36.783Z,64.51
2022-09-06T23:03:51.700Z,64.62
2022-09-06T23:06:42.934Z,64.63
2022-09-06T23:09:34.832Z,64.39
2022-09-06T23:12:22.739Z,64.49
2022-09-06T23:15:48.524Z,64.35
2022-09-06T23:18:37.281Z,64.21
2022-09-06T23:21:34.627Z,64.13
2022-09-06T23:24:04.034Z,64.54
2022-09-06T23:27:21.921Z,64.22
2022-09-06T23:30:11.701Z,64.30
2022-09-06T23:32:51.043Z,63.93
2022-09-06T23:35:44.297Z,63.81
2022-09-06T23:38:28.474Z,63.89
2022-09-06T23:41:03.384Z,63.94
2022-09-06T23:43:46.603Z,64.06
2022-09-06T23:46:30.223Z,64.18
2022-09-06T23:49:03.127Z,64.02
2022-09-06T23:52:03.348Z,63.91
2022-09-06T23:55:23.952Z,63.94
2022-09-06T23:58:13.428Z,63.34
